sensor_id;sensor_type;location;lat;lon;timestamp;temperature;humidity
20985;DHT22;10651;47.552;7.606;2023-05-20T05:15:58;14.10;99.90
20985;DHT22;10651;47.552;7.606;2023-05-20T05:18:25;14.60;99.90
20985;DHT22;10651;47.552;7.606;2023-05-20T05:20:58;14.70;99.90
20985;DHT22;10651;47.552;7.606;2023-05-20T05:23:25;14.70;99.90
20985;DHT22;10651;47.552;7.606;2023-05-20T05:25:51;14.70;99.90
20985;DHT22;10651;47.552;7.606;2023-05-20T05:28:17;14.70;99.90
20985;DHT22;10651;47.552;7.606;2023-05-20T05:30:43;14.70;99.90
20985;DHT22;10651;47.552;7.606;2023-05-20T05:33:09;14.70;99.90
20985;DHT22;10651;47.552;7.606;2023-05-20T05:35:35;14.60;99.90
20985;DHT22;10651;47.552;7.606;2023-05-20T05:38:00;14.60;99.90
20985;DHT22;10651;47.552;7.606;2023-05-20T05:40:29;14.60;99.90
20985;DHT22;10651;47.552;7.606;2023-05-20T05:42:56;14.70;99.90
20985;DHT22;10651;47.552;7.606;2023-05-20T05:45:21;14.70;99.90
20985;DHT22;10651;47.552;7.606;2023-05-20T05:47:47;14.70;99.90
20985;DHT22;10651;47.552;7.606;2023-05-20T05:50:18;14.80;99.90
20985;DHT22;10651;47.552;7.606;2023-05-20T05:52:46;14.80;99.90
20985;DHT22;10651;47.552;7.606;2023-05-20T05:55:12;14.80;99.90
20985;DHT22;10651;47.552;7.606;2023-05-20T05:57:38;14.80;99.90
20985;DHT22;10651;47.552;7.606;2023-05-20T06:00:04;14.80;99.90
20985;DHT22;10651;47.552;7.606;2023-05-20T06:02:39;14.90;99.90
20985;DHT22;10651;47.552;7.606;2023-05-20T06:05:05;14.90;99.90
20985;DHT22;10651;47.552;7.606;2023-05-20T06:07:34;14.80;99.90
20985;DHT22;10651;47.552;7.606;2023-05-20T06:10:00;14.80;99.90
20985;DHT22;10651;47.552;7.606;2023-05-20T06:12:33;14.80;99.90
20985;DHT22;10651;47.552;7.606;2023-05-20T06:14:59;14.80;99.90
20985;DHT22;10651;47.552;7.606;2023-05-20T06:17:27;14.90;99.90
20985;DHT22;10651;47.552;7.606;2023-05-20T06:19:58;14.90;99.90
20985;DHT22;10651;47.552;7.606;2023-05-20T06:22:27;14.90;99.90
20985;DHT22;10651;47.552;7.606;2023-05-20T06:24:56;14.90;99.90
20985;DHT22;10651;47.552;7.606;2023-05-20T06:27:27;14.90;99.90
20985;DHT22;10651;47.552;7.606;2023-05-20T06:29:53;15.00;99.90
20985;DHT22;10651;47.552;7.606;2023-05-20T06:32:19;15.00;99.90
20985;DHT22;10651;47.552;7.606;2023-05-20T06:34:45;15.00;99.90
20985;DHT22;10651;47.552;7.606;2023-05-20T06:37:10;15.00;99.90
20985;DHT22;10651;47.552;7.606;2023-05-20T06:42:44;15.10;99.90
20985;DHT22;10651;47.552;7.606;2023-05-20T06:45:13;15.20;99.90
20985;DHT22;10651;47.552;7.606;2023-05-20T06:47:38;15.30;99.90
20985;DHT22;10651;47.552;7.606;2023-05-20T09:21:56;17.50;99.90
20985;DHT22;10651;47.552;7.606;2023-05-20T09:24:24;17.70;99.90
20985;DHT22;10651;47.552;7.606;2023-05-20T09:27:06;17.70;99.90
20985;DHT22;10651;47.552;7.606;2023-05-20T09:29:41;17.90;99.90
20985;DHT22;10651;47.552;7.606;2023-05-20T09:32:20;18.00;99.90
20985;DHT22;10651;47.552;7.606;2023-05-20T09:38:01;18.10;99.90
20985;DHT22;10651;47.552;7.606;2023-05-20T09:40:58;18.20;99.90
20985;DHT22;10651;47.552;7.606;2023-05-20T09:43:32;18.20;99.90
20985;DHT22;10651;47.552;7.606;2023-05-20T09:45:58;18.40;99.90
20985;DHT22;10651;47.552;7.606;2023-05-20T09:48:28;18.60;99.90
20985;DHT22;10651;47.552;7.606;2023-05-20T09:51:00;18.70;99.90
20985;DHT22;10651;47.552;7.606;2023-05-20T09:53:52;18.40;99.90
20985;DHT22;10651;47.552;7.606;2023-05-20T09:56:49;18.50;99.90
20985;DHT22;10651;47.552;7.606;2023-05-20T10:02:23;18.70;99.90
20985;DHT22;10651;47.552;7.606;2023-05-20T10:04:58;19.10;99.90
20985;DHT22;10651;47.552;7.606;2023-05-20T10:11:08;18.90;99.90
20985;DHT22;10651;47.552;7.606;2023-05-20T10:19:55;18.40;99.90
20985;DHT22;10651;47.552;7.606;2023-05-20T10:23:01;18.60;99.90
20985;DHT22;10651;47.552;7.606;2023-05-20T10:25:48;19.10;99.90
20985;DHT22;10651;47.552;7.606;2023-05-20T10:28:41;18.90;99.90
20985;DHT22;10651;47.552;7.606;2023-05-20T10:31:51;19.20;99.90
20985;DHT22;10651;47.552;7.606;2023-05-20T10:34:49;19.90;99.90
20985;DHT22;10651;47.552;7.606;2023-05-20T10:37:42;20.30;99.90
20985;DHT22;10651;47.552;7.606;2023-05-20T10:40:16;20.20;99.90
20985;DHT22;10651;47.552;7.606;2023-05-20T10:42:50;20.10;99.90
20985;DHT22;10651;47.552;7.606;2023-05-20T10:45:35;20.00;99.90
20985;DHT22;10651;47.552;7.606;2023-05-20T10:48:35;19.90;99.90
20985;DHT22;10651;47.552;7.606;2023-05-20T10:51:21;20.00;99.90
20985;DHT22;10651;47.552;7.606;2023-05-20T10:53:59;20.00;99.90
20985;DHT22;10651;47.552;7.606;2023-05-20T10:56:29;20.10;99.90
20985;DHT22;10651;47.552;7.606;2023-05-20T10:59:01;20.50;99.90
20985;DHT22;10651;47.552;7.606;2023-05-20T11:01:27;21.00;99.90
20985;DHT22;10651;47.552;7.606;2023-05-20T11:03:54;21.60;99.90
20985;DHT22;10651;47.552;7.606;2023-05-20T11:06:36;21.70;99.90
20985;DHT22;10651;47.552;7.606;2023-05-20T11:09:08;22.00;99.90
20985;DHT22;10651;47.552;7.606;2023-05-20T11:11:36;21.70;99.90
20985;DHT22;10651;47.552;7.606;2023-05-20T11:14:38;21.20;99.90
20985;DHT22;10651;47.552;7.606;2023-05-20T11:19:58;21.60;99.90
20985;DHT22;10651;47.552;7.606;2023-05-20T11:22:53;21.60;99.90
20985;DHT22;10651;47.552;7.606;2023-05-20T11:25:30;21.50;99.90
20985;DHT22;10651;47.552;7.606;2023-05-20T11:28:19;21.20;99.90
20985;DHT22;10651;47.552;7.606;2023-05-20T11:30:52;21.20;99.90
20985;DHT22;10651;47.552;7.606;2023-05-20T11:33:24;21.60;99.90
20985;DHT22;10651;47.552;7.606;2023-05-20T11:35:59;21.70;99.90
20985;DHT22;10651;47.552;7.606;2023-05-20T11:38:29;21.30;99.90
20985;DHT22;10651;47.552;7.606;2023-05-20T11:40:56;21.10;99.90
20985;DHT22;10651;47.552;7.606;2023-05-20T11:43:25;21.50;99.90
20985;DHT22;10651;47.552;7.606;2023-05-20T11:45:57;21.70;99.90
20985;DHT22;10651;47.552;7.606;2023-05-20T11:48:39;22.00;99.90
20985;DHT22;10651;47.552;7.606;2023-05-20T11:51:17;21.90;99.90
20985;DHT22;10651;47.552;7.606;2023-05-20T11:53:49;22.30;99.90
20985;DHT22;10651;47.552;7.606;2023-05-20T11:59:31;22.90;99.90
20985;DHT22;10651;47.552;7.606;2023-05-20T12:02:07;22.90;99.90
20985;DHT22;10651;47.552;7.606;2023-05-20T12:04:35;23.40;99.90
20985;DHT22;10651;47.552;7.606;2023-05-20T12:07:06;23.70;99.90
20985;DHT22;10651;47.552;7.606;2023-05-20T12:09:42;23.20;99.90
20985;DHT22;10651;47.552;7.606;2023-05-20T12:12:08;23.30;99.90
20985;DHT22;10651;47.552;7.606;2023-05-20T12:14:44;23.50;99.90
20985;DHT22;10651;47.552;7.606;2023-05-20T12:17:10;23.40;99.90
20985;DHT22;10651;47.552;7.606;2023-05-20T12:19:36;23.40;99.90
20985;DHT22;10651;47.552;7.606;2023-05-20T12:22:02;23.20;99.90
20985;DHT22;10651;47.552;7.606;2023-05-20T12:24:28;23.10;99.90
20985;DHT22;10651;47.552;7.606;2023-05-20T12:27:00;22.60;99.90
20985;DHT22;10651;47.552;7.606;2023-05-20T12:29:28;22.20;99.90
20985;DHT22;10651;47.552;7.606;2023-05-20T12:31:55;22.00;99.90
20985;DHT22;10651;47.552;7.606;2023-05-20T12:34:26;21.90;99.90
20985;DHT22;10651;47.552;7.606;2023-05-20T12:36:52;21.80;99.90
20985;DHT22;10651;47.552;7.606;2023-05-20T12:39:23;21.60;99.90
20985;DHT22;10651;47.552;7.606;2023-05-20T12:41:49;21.70;99.90
20985;DHT22;10651;47.552;7.606;2023-05-20T12:44:15;21.90;99.90
20985;DHT22;10651;47.552;7.606;2023-05-20T12:46:41;21.70;99.90
20985;DHT22;10651;47.552;7.606;2023-05-20T12:49:07;21.60;99.90
20985;DHT22;10651;47.552;7.606;2023-05-20T12:51:33;21.50;99.90
20985;DHT22;10651;47.552;7.606;2023-05-20T12:53:58;21.20;99.90
20985;DHT22;10651;47.552;7.606;2023-05-20T12:56:24;21.10;99.90
20985;DHT22;10651;47.552;7.606;2023-05-20T12:58:50;21.20;99.90
20985;DHT22;10651;47.552;7.606;2023-05-20T13:01:16;21.40;99.90
20985;DHT22;10651;47.552;7.606;2023-05-20T13:03:51;21.60;99.90
20985;DHT22;10651;47.552;7.606;2023-05-20T13:06:20;21.80;99.90
20985;DHT22;10651;47.552;7.606;2023-05-20T13:08:49;21.70;99.90
20985;DHT22;10651;47.552;7.606;2023-05-20T13:11:15;21.60;99.90
20985;DHT22;10651;47.552;7.606;2023-05-20T13:13:41;21.50;99.90
20985;DHT22;10651;47.552;7.606;2023-05-20T13:16:07;21.40;99.90
20985;DHT22;10651;47.552;7.606;2023-05-20T13:18:36;21.40;99.90
20985;DHT22;10651;47.552;7.606;2023-05-20T13:21:02;21.30;99.90
20985;DHT22;10651;47.552;7.606;2023-05-20T13:23:31;21.50;99.90
20985;DHT22;10651;47.552;7.606;2023-05-20T13:26:09;21.50;99.90
20985;DHT22;10651;47.552;7.606;2023-05-20T13:28:43;21.60;99.90
20985;DHT22;10651;47.552;7.606;2023-05-20T13:31:18;21.50;99.90
20985;DHT22;10651;47.552;7.606;2023-05-20T13:33:47;21.30;99.90
20985;DHT22;10651;47.552;7.606;2023-05-20T13:36:15;21.20;99.90
20985;DHT22;10651;47.552;7.606;2023-05-20T13:38:41;21.10;99.90
20985;DHT22;10651;47.552;7.606;2023-05-20T13:41:10;21.10;99.90
20985;DHT22;10651;47.552;7.606;2023-05-20T13:43:56;21.00;99.90
20985;DHT22;10651;47.552;7.606;2023-05-20T13:46:31;21.00;99.90
20985;DHT22;10651;47.552;7.606;2023-05-20T13:49:04;20.90;99.90
20985;DHT22;10651;47.552;7.606;2023-05-20T13:51:39;20.90;99.90
20985;DHT22;10651;47.552;7.606;2023-05-20T13:54:10;20.80;99.90
20985;DHT22;10651;47.552;7.606;2023-05-20T13:56:43;20.80;99.90
20985;DHT22;10651;47.552;7.606;2023-05-20T13:59:21;20.80;99.90
20985;DHT22;10651;47.552;7.606;2023-05-20T14:01:56;20.70;99.90
20985;DHT22;10651;47.552;7.606;2023-05-20T14:04:30;20.80;99.90
20985;DHT22;10651;47.552;7.606;2023-05-20T14:06:56;20.80;99.90
20985;DHT22;10651;47.552;7.606;2023-05-20T14:09:28;20.90;99.90
20985;DHT22;10651;47.552;7.606;2023-05-20T14:12:05;20.90;99.90
20985;DHT22;10651;47.552;7.606;2023-05-20T14:14:31;20.80;99.90
20985;DHT22;10651;47.552;7.606;2023-05-20T14:17:06;20.80;99.90
20985;DHT22;10651;47.552;7.606;2023-05-20T14:19:35;20.80;99.90
20985;DHT22;10651;47.552;7.606;2023-05-20T14:22:07;20.80;99.90
20985;DHT22;10651;47.552;7.606;2023-05-20T14:24:35;20.70;99.90
20985;DHT22;10651;47.552;7.606;2023-05-20T14:27:10;20.60;99.90
20985;DHT22;10651;47.552;7.606;2023-05-20T14:29:48;20.50;99.90
20985;DHT22;10651;47.552;7.606;2023-05-20T14:32:19;20.40;99.90
20985;DHT22;10651;47.552;7.606;2023-05-20T14:34:50;20.40;99.90
20985;DHT22;10651;47.552;7.606;2023-05-20T14:37:16;20.40;99.90
20985;DHT22;10651;47.552;7.606;2023-05-20T14:39:48;20.40;99.90
20985;DHT22;10651;47.552;7.606;2023-05-20T14:42:27;20.40;99.90
20985;DHT22;10651;47.552;7.606;2023-05-20T14:44:56;20.50;99.90
20985;DHT22;10651;47.552;7.606;2023-05-20T14:47:22;20.60;99.90
20985;DHT22;10651;47.552;7.606;2023-05-20T14:49:48;20.60;99.90
20985;DHT22;10651;47.552;7.606;2023-05-20T14:52:23;20.60;99.90
20985;DHT22;10651;47.552;7.606;2023-05-20T14:54:55;20.60;99.90
20985;DHT22;10651;47.552;7.606;2023-05-20T14:57:23;20.60;99.90
20985;DHT22;10651;47.552;7.606;2023-05-20T14:59:55;20.60;99.90
20985;DHT22;10651;47.552;7.606;2023-05-20T15:02:29;20.60;99.90
20985;DHT22;10651;47.552;7.606;2023-05-20T15:05:00;20.50;99.90
20985;DHT22;10651;47.552;7.606;2023-05-20T15:07:27;20.60;99.90
20985;DHT22;10651;47.552;7.606;2023-05-20T15:10:21;20.70;99.90
20985;DHT22;10651;47.552;7.606;2023-05-20T15:12:50;20.70;99.90
20985;DHT22;10651;47.552;7.606;2023-05-20T15:15:42;20.70;99.90
20985;DHT22;10651;47.552;7.606;2023-05-20T15:18:12;20.70;99.90
20985;DHT22;10651;47.552;7.606;2023-05-20T15:20:41;20.60;99.90
20985;DHT22;10651;47.552;7.606;2023-05-20T15:23:07;20.70;99.90
20985;DHT22;10651;47.552;7.606;2023-05-20T15:25:36;20.70;99.90
20985;DHT22;10651;47.552;7.606;2023-05-20T15:28:02;20.60;99.90
20985;DHT22;10651;47.552;7.606;2023-05-20T15:30:28;20.50;99.90
20985;DHT22;10651;47.552;7.606;2023-05-20T15:32:53;20.50;99.90
20985;DHT22;10651;47.552;7.606;2023-05-20T15:35:26;20.40;99.90
20985;DHT22;10651;47.552;7.606;2023-05-20T15:37:57;20.50;99.90
20985;DHT22;10651;47.552;7.606;2023-05-20T15:40:34;20.50;99.90
20985;DHT22;10651;47.552;7.606;2023-05-20T15:43:02;20.50;99.90
20985;DHT22;10651;47.552;7.606;2023-05-20T15:45:40;20.50;99.90
20985;DHT22;10651;47.552;7.606;2023-05-20T15:48:09;20.40;99.90
20985;DHT22;10651;47.552;7.606;2023-05-20T15:50:50;20.40;99.90
20985;DHT22;10651;47.552;7.606;2023-05-20T15:53:19;20.30;99.90
20985;DHT22;10651;47.552;7.606;2023-05-20T15:55:45;20.20;99.90
20985;DHT22;10651;47.552;7.606;2023-05-20T15:58:11;20.20;99.90
20985;DHT22;10651;47.552;7.606;2023-05-20T16:00:39;20.20;99.90
20985;DHT22;10651;47.552;7.606;2023-05-20T16:03:18;20.10;99.90
20985;DHT22;10651;47.552;7.606;2023-05-20T16:05:47;20.10;99.90
20985;DHT22;10651;47.552;7.606;2023-05-20T16:08:21;20.10;99.90
20985;DHT22;10651;47.552;7.606;2023-05-20T16:10:50;20.00;99.90
20985;DHT22;10651;47.552;7.606;2023-05-20T16:13:31;20.00;99.90
20985;DHT22;10651;47.552;7.606;2023-05-20T16:16:09;20.00;99.90
20985;DHT22;10651;47.552;7.606;2023-05-20T16:18:40;19.90;99.90
20985;DHT22;10651;47.552;7.606;2023-05-20T16:21:11;19.90;99.90
20985;DHT22;10651;47.552;7.606;2023-05-20T16:23:39;19.80;99.90
20985;DHT22;10651;47.552;7.606;2023-05-20T16:26:08;19.90;99.90
20985;DHT22;10651;47.552;7.606;2023-05-20T16:28:34;19.80;99.90
20985;DHT22;10651;47.552;7.606;2023-05-20T19:02:25;18.10;99.90
20985;DHT22;10651;47.552;7.606;2023-05-20T19:04:51;18.10;99.90
20985;DHT22;10651;47.552;7.606;2023-05-20T19:07:17;18.20;99.90
20985;DHT22;10651;47.552;7.606;2023-05-20T20:21:51;17.20;99.90
20985;DHT22;10651;47.552;7.606;2023-05-20T20:24:18;17.20;99.90
20985;DHT22;10651;47.552;7.606;2023-05-20T20:26:43;17.20;99.90
20985;DHT22;10651;47.552;7.606;2023-05-20T20:29:12;17.20;99.90
20985;DHT22;10651;47.552;7.606;2023-05-20T20:31:38;17.20;99.90
20985;DHT22;10651;47.552;7.606;2023-05-20T20:34:04;17.20;99.90
20985;DHT22;10651;47.552;7.606;2023-05-20T20:36:30;17.20;99.90
20985;DHT22;10651;47.552;7.606;2023-05-20T20:39:00;17.20;99.90
20985;DHT22;10651;47.552;7.606;2023-05-20T20:41:29;17.20;99.90
20985;DHT22;10651;47.552;7.606;2023-05-20T21:25:48;17.00;99.90
20985;DHT22;10651;47.552;7.606;2023-05-20T21:28:15;16.90;99.90
20985;DHT22;10651;47.552;7.606;2023-05-20T21:30:41;16.90;99.90
20985;DHT22;10651;47.552;7.606;2023-05-20T21:33:07;16.90;99.90
20985;DHT22;10651;47.552;7.606;2023-05-20T21:35:33;16.90;99.90
20985;DHT22;10651;47.552;7.606;2023-05-20T21:37:58;16.80;99.90
20985;DHT22;10651;47.552;7.606;2023-05-20T21:40:24;16.80;99.90
20985;DHT22;10651;47.552;7.606;2023-05-20T21:42:50;16.80;99.90
20985;DHT22;10651;47.552;7.606;2023-05-20T21:45:16;16.80;99.90
20985;DHT22;10651;47.552;7.606;2023-05-20T21:47:42;16.80;99.90
20985;DHT22;10651;47.552;7.606;2023-05-20T21:50:10;16.80;99.90
20985;DHT22;10651;47.552;7.606;2023-05-20T21:52:36;16.80;99.90
20985;DHT22;10651;47.552;7.606;2023-05-20T21:55:07;16.80;99.90
20985;DHT22;10651;47.552;7.606;2023-05-20T21:57:36;16.80;99.90
